Time;durP1;ratioP1;P1;durP2;ratioP2;P2;SDS_P1;SDS_P2;PMS_P1;PMS_P2;Temp;Humidity;BMP_temperature;BMP_pressure;BME280_temperature;BME280_humidity;BME280_pressure;Samples;Min_cycle;Max_cycle;Signal;HPM_P1;HPM_P2
2022/11/22 00:00:11;;;;;;;4.72;2.70;;;;;;;2.93;100.00;90934.31;5070313;28;20119;-75
2022/11/22 00:02:36;;;;;;;4.90;2.63;;;;;;;2.94;100.00;90922.94;5070488;28;20386;-75
2022/11/22 00:05:02;;;;;;;5.22;2.97;;;;;;;2.95;100.00;90916.72;5069248;28;20045;-75
2022/11/22 00:07:28;;;;;;;4.60;2.70;;;;;;;2.96;100.00;90912.31;5069154;28;20081;-76
2022/11/22 00:09:53;;;;;;;4.70;2.97;;;;;;;2.97;100.00;90903.50;5052610;28;20402;-76
2022/11/22 00:12:19;;;;;;;5.35;3.10;;;;;;;2.98;100.00;90895.47;5077069;28;20044;-75
2022/11/22 00:14:45;;;;;;;5.93;3.40;;;;;;;3.01;100.00;90889.75;5090872;28;20032;-76
2022/11/22 00:17:10;;;;;;;4.45;2.70;;;;;;;3.00;100.00;90888.22;5090634;28;20054;-76
2022/11/22 00:19:38;;;;;;;5.40;3.30;;;;;;;3.00;100.00;90880.47;5088333;28;20032;-75
2022/11/22 00:22:04;;;;;;;5.28;3.08;;;;;;;2.99;100.00;90878.16;5085118;28;20029;-75
2022/11/22 00:24:30;;;;;;;5.55;2.72;;;;;;;3.02;100.00;90880.97;5052472;28;20051;-75
2022/11/22 00:26:56;;;;;;;4.28;2.58;;;;;;;2.96;100.00;90882.06;5069067;28;20041;-75
2022/11/22 00:29:21;;;;;;;34.08;3.33;;;;;;;2.99;100.00;90881.50;5070170;28;20409;-75
2022/11/22 00:31:47;;;;;;;561.63;13.57;;;;;;;2.89;100.00;90879.81;5068994;28;20040;-75
2022/11/22 00:34:12;;;;;;;324.15;9.02;;;;;;;2.98;100.00;90872.22;5070114;28;20033;-75
2022/11/22 00:36:37;;;;;;;625.17;14.30;;;;;;;2.90;100.00;90867.66;5052198;28;20024;-75
2022/11/22 00:39:03;;;;;;;315.45;8.00;;;;;;;2.84;100.00;90859.22;5070284;28;20028;-75
2022/11/22 00:41:29;;;;;;;752.13;16.92;;;;;;;2.71;100.00;90854.72;5070652;28;20033;-75
2022/11/22 00:43:54;;;;;;;276.65;7.35;;;;;;;2.67;100.00;90857.09;5040257;28;20032;-75
2022/11/22 00:46:20;;;;;;;406.00;9.55;;;;;;;2.65;100.00;90850.66;5056012;28;20044;-75
2022/11/22 00:48:45;;;;;;;200.18;6.03;;;;;;;2.61;100.00;90860.00;5073688;28;20435;-75
2022/11/22 00:51:11;;;;;;;219.00;6.20;;;;;;;2.60;100.00;90854.09;5055734;28;20043;-75
2022/11/22 00:53:37;;;;;;;137.50;4.45;;;;;;;2.57;100.00;90849.47;5073298;28;20421;-75
2022/11/22 00:56:02;;;;;;;27.05;3.75;;;;;;;2.60;100.00;90843.75;5072249;28;20029;-75
2022/11/22 00:58:28;;;;;;;87.45;4.55;;;;;;;2.60;100.00;90841.16;5072268;28;20354;-75
2022/11/22 01:00:53;;;;;;;18.33;3.42;;;;;;;2.62;100.00;90841.66;5072347;28;20079;-75
2022/11/22 01:03:19;;;;;;;5.55;3.05;;;;;;;2.67;100.00;90839.00;5072251;28;20032;-75
2022/11/22 01:05:45;;;;;;;4.70;3.00;;;;;;;2.68;100.00;90832.81;5074534;28;20037;-75
2022/11/22 01:08:11;;;;;;;4.78;2.97;;;;;;;2.68;100.00;90835.38;5073247;28;20032;-75
2022/11/22 01:10:37;;;;;;;5.63;2.97;;;;;;;2.69;100.00;90836.16;5073362;28;20513;-75
2022/11/22 01:13:04;;;;;;;5.20;2.80;;;;;;;2.71;100.00;90840.00;5071612;28;20028;-75
2022/11/22 01:15:30;;;;;;;4.68;2.40;;;;;;;2.71;100.00;90836.66;5073092;28;20497;-74
2022/11/22 01:17:56;;;;;;;3.50;2.20;;;;;;;2.72;100.00;90827.84;5072964;28;20039;-76
2022/11/22 01:20:21;;;;;;;3.90;2.30;;;;;;;2.79;100.00;90817.94;5071856;28;20020;-76
2022/11/22 01:22:47;;;;;;;3.60;2.13;;;;;;;2.80;100.00;90810.94;5055155;28;20398;-76
2022/11/22 01:25:13;;;;;;;4.10;2.30;;;;;;;2.82;100.00;90801.09;5056217;28;20131;-76
2022/11/22 01:27:38;;;;;;;68.97;3.33;;;;;;;2.84;100.00;90799.00;5071583;28;20020;-76
2022/11/22 01:30:04;;;;;;;62.67;3.70;;;;;;;2.92;100.00;90793.97;5054960;28;20166;-75
2022/11/22 01:32:30;;;;;;;103.85;4.05;;;;;;;3.04;100.00;90796.13;5071432;28;20087;-75
2022/11/22 01:34:55;;;;;;;8.93;1.80;;;;;;;3.10;100.00;90789.81;5072804;28;20115;-75
2022/11/22 01:37:21;;;;;;;20.33;2.35;;;;;;;3.04;100.00;90785.00;5056122;28;20105;-75
2022/11/22 01:39:46;;;;;;;10.05;2.25;;;;;;;2.96;100.00;90789.00;5071619;28;20060;-75
2022/11/22 01:42:12;;;;;;;4.07;2.17;;;;;;;2.74;100.00;90788.81;5054634;28;20050;-75
2022/11/22 01:44:40;;;;;;;3.95;2.15;;;;;;;2.64;100.00;90787.13;5072590;28;20115;-75
2022/11/22 01:47:14;;;;;;;12.82;2.60;;;;;;;2.57;100.00;90787.47;5078807;28;20075;-75
2022/11/22 01:49:45;;;;;;;3.90;2.00;;;;;;;2.54;100.00;90782.09;5091745;28;20490;-75
2022/11/22 01:52:17;;;;;;;3.85;2.30;;;;;;;2.52;100.00;90779.00;5090875;28;20097;-75
2022/11/22 01:54:49;;;;;;;3.50;1.80;;;;;;;2.58;100.00;90775.31;5074255;28;20151;-75
2022/11/22 01:57:22;;;;;;;3.17;1.80;;;;;;;2.52;100.00;90774.59;5091035;28;20058;-75
2022/11/22 01:59:59;;;;;;;4.50;2.00;;;;;;;2.52;100.00;90779.78;5092670;28;20039;-75
2022/11/22 02:02:25;;;;;;;3.72;2.05;;;;;;;2.54;100.00;90775.09;5091182;28;20035;-75
2022/11/22 02:04:53;;;;;;;3.20;1.90;;;;;;;2.49;100.00;90765.59;5091234;28;20028;-75
2022/11/22 02:07:23;;;;;;;3.70;2.00;;;;;;;2.53;100.00;90763.25;5089346;28;20044;-75
2022/11/22 02:09:52;;;;;;;3.03;1.67;;;;;;;2.60;100.00;90758.50;5091197;28;20043;-75
2022/11/22 02:12:22;;;;;;;2.45;1.48;;;;;;;2.60;100.00;90750.75;5091101;28;20059;-75
2022/11/22 02:14:48;;;;;;;3.65;1.92;;;;;;;2.63;100.00;90744.25;5092377;28;20413;-75
2022/11/22 02:17:14;;;;;;;3.40;2.00;;;;;;;2.66;100.00;90739.31;5090932;28;20036;-75
2022/11/22 02:19:47;;;;;;;3.80;1.98;;;;;;;2.68;100.00;90729.47;5087695;28;20047;-75
2022/11/22 02:22:15;;;;;;;3.38;1.80;;;;;;;2.67;100.00;90720.16;5072528;28;20036;-75
2022/11/22 02:25:03;;;;;;;3.35;1.80;;;;;;;2.68;100.00;90713.94;5079185;28;20424;-75
2022/11/22 02:27:29;;;;;;;3.10;1.75;;;;;;;2.71;100.00;90703.03;5091998;28;20060;-75
2022/11/22 02:29:54;;;;;;;3.42;1.80;;;;;;;2.71;100.00;90694.53;5061015;28;20495;-75
2022/11/22 02:32:20;;;;;;;3.70;1.92;;;;;;;2.69;100.00;90688.88;5071406;28;20477;-75
2022/11/22 02:34:49;;;;;;;200.07;5.70;;;;;;;2.77;100.00;90679.72;5070423;28;20044;-75
2022/11/22 02:37:22;;;;;;;203.80;5.65;;;;;;;2.67;100.00;90668.47;5071812;28;20040;-75
2022/11/22 02:39:54;;;;;;;273.98;6.82;;;;;;;2.48;100.00;90660.75;5072983;28;20123;-75
2022/11/22 02:42:21;;;;;;;218.23;5.72;;;;;;;2.42;100.00;90661.13;5071604;28;20132;-75
2022/11/22 02:44:46;;;;;;;118.75;4.18;;;;;;;2.63;100.00;90656.41;5071229;28;20444;-75
2022/11/22 02:47:12;;;;;;;61.70;2.97;;;;;;;2.57;100.00;90655.72;5070013;28;20094;-75
2022/11/22 02:49:37;;;;;;;253.18;6.28;;;;;;;2.49;100.00;90653.78;5054812;28;20359;-75
2022/11/22 02:52:03;;;;;;;133.48;4.75;;;;;;;2.47;100.00;90642.97;5071257;28;20037;-75
2022/11/22 02:54:29;;;;;;;5.72;2.50;;;;;;;2.47;100.00;90638.56;5069815;28;20056;-75
2022/11/22 02:56:54;;;;;;;102.22;6.20;;;;;;;2.48;100.00;90639.34;5070026;28;20033;-75
2022/11/22 02:59:20;;;;;;;11.93;3.22;;;;;;;2.53;100.00;90641.84;5053437;28;20041;-74
2022/11/22 03:01:46;;;;;;;32.75;3.25;;;;;;;2.54;100.00;90633.03;5071233;28;20111;-75
2022/11/22 03:04:23;;;;;;;8.05;2.90;;;;;;;2.57;100.00;90627.31;5070677;28;20370;-75
2022/11/22 03:06:58;;;;;;;4.32;2.47;;;;;;;2.56;100.00;90620.59;5069854;28;20512;-75
2022/11/22 03:09:25;;;;;;;5.43;2.75;;;;;;;2.60;100.00;90624.16;5071069;28;20036;-75
2022/11/22 03:11:52;;;;;;;4.05;2.45;;;;;;;2.61;100.00;90612.78;5070764;28;20470;-75
2022/11/22 03:14:18;;;;;;;7.63;3.10;;;;;;;2.61;100.00;90612.78;5069843;28;20040;-75
2022/11/22 03:16:45;;;;;;;4.25;2.50;;;;;;;2.63;100.00;90618.41;5071225;28;20060;-75
2022/11/22 03:19:11;;;;;;;3.58;2.20;;;;;;;2.65;100.00;90615.56;5053138;28;20043;-75
2022/11/22 03:21:38;;;;;;;5.22;2.40;;;;;;;2.64;100.00;90611.47;5072040;28;20029;-75
2022/11/22 03:24:04;;;;;;;6.28;2.78;;;;;;;2.63;100.00;90608.09;5070751;28;20043;-75
2022/11/22 03:26:30;;;;;;;5.13;2.78;;;;;;;2.68;100.00;90605.44;5052880;28;20071;-75
2022/11/22 03:28:55;;;;;;;7.65;3.28;;;;;;;2.66;100.00;90599.03;5071074;28;20507;-75
2022/11/22 03:31:21;;;;;;;7.15;3.45;;;;;;;2.66;100.00;90594.63;5036276;28;20044;-75
2022/11/22 03:33:46;;;;;;;4.00;2.13;;;;;;;2.68;100.00;90587.34;5053936;28;20041;-75
2022/11/22 03:36:12;;;;;;;4.53;1.83;;;;;;;2.68;100.00;90589.94;5052882;28;20040;-75
2022/11/22 03:38:38;;;;;;;3.15;1.70;;;;;;;2.69;100.00;90583.72;5069501;28;20345;-75
2022/11/22 03:41:03;;;;;;;3.30;1.63;;;;;;;2.72;100.00;90587.53;5070565;28;20494;-75
2022/11/22 03:43:29;;;;;;;3.25;1.83;;;;;;;2.76;100.00;90592.91;5070499;28;20043;-75
2022/11/22 03:45:54;;;;;;;3.30;1.80;;;;;;;2.75;100.00;90589.56;5070892;28;20044;-75
2022/11/22 03:48:20;;;;;;;3.83;1.90;;;;;;;2.74;100.00;90592.44;5073685;28;20104;-75
2022/11/22 03:50:45;;;;;;;2.33;1.42;;;;;;;2.77;100.00;90584.09;5088610;28;20078;-75
2022/11/22 03:53:11;;;;;;;3.58;1.77;;;;;;;2.73;100.00;90578.75;5086215;28;20075;-75
2022/11/22 03:55:37;;;;;;;3.30;1.80;;;;;;;2.73;100.00;90580.56;5052545;28;20040;-75
2022/11/22 03:58:03;;;;;;;2.42;1.50;;;;;;;2.72;100.00;90579.78;5070595;28;20098;-75
2022/11/22 04:00:29;;;;;;;2.67;1.63;;;;;;;2.75;100.00;90587.00;5070610;28;20142;-75
2022/11/22 04:02:55;;;;;;;3.28;1.90;;;;;;;2.70;100.00;90580.09;5052679;28;20027;-75
2022/11/22 04:05:21;;;;;;;3.40;1.95;;;;;;;2.71;100.00;90581.59;5084506;28;20032;-75
2022/11/22 04:07:47;;;;;;;7.72;4.20;;;;;;;2.75;100.00;90574.06;5090632;28;20115;-74
2022/11/22 04:10:13;;;;;;;4.68;2.53;;;;;;;2.73;100.00;90567.66;5089523;28;20035;-75
2022/11/22 04:12:38;;;;;;;4.22;2.05;;;;;;;2.70;100.00;90564.59;5089358;28;20497;-75
2022/11/22 04:15:07;;;;;;;3.20;1.70;;;;;;;2.71;100.00;90562.75;5072213;28;20044;-75
2022/11/22 04:17:43;;;;;;;2.28;1.40;;;;;;;2.76;100.00;90567.06;5109510;28;20043;-75
2022/11/22 04:23:14;;;;;;;2.30;1.42;;;;;;;2.81;100.00;90570.31;5093166;28;20501;-75
2022/11/22 04:25:42;;;;;;;2.83;1.50;;;;;;;2.82;100.00;90566.69;5091688;28;20108;-75
2022/11/22 04:28:10;;;;;;;3.47;1.50;;;;;;;2.81;100.00;90561.81;5073028;28;20028;-76
2022/11/22 04:33:20;;;;;;;2.33;1.30;;;;;;;2.81;100.00;90554.06;5088081;28;20044;-76
2022/11/22 04:35:46;;;;;;;1.85;1.23;;;;;;;2.81;100.00;90549.66;5085979;28;20034;-76
2022/11/22 04:38:13;;;;;;;1.45;1.00;;;;;;;2.83;100.00;90557.13;5072705;28;20040;-75
2022/11/22 04:40:39;;;;;;;2.30;1.40;;;;;;;2.82;100.00;90556.38;5055943;28;20378;-74
2022/11/22 04:45:50;;;;;;;4.30;1.70;;;;;;;2.88;100.00;90551.88;5075068;28;20051;-75
2022/11/22 04:48:16;;;;;;;2.55;1.58;;;;;;;3.08;100.00;90548.91;5073614;28;20082;-75
2022/11/22 04:53:27;;;;;;;7.32;1.52;;;;;;;2.84;100.00;90546.50;5088436;28;20047;-75
2022/11/22 04:55:53;;;;;;;2.15;1.40;;;;;;;2.87;100.00;90543.34;5092633;28;20044;-75
2022/11/22 04:58:19;;;;;;;1.65;1.20;;;;;;;2.95;100.00;90541.94;5076084;28;20036;-75
2022/11/22 05:00:45;;;;;;;3.05;1.63;;;;;;;2.92;100.00;90538.06;5072344;28;20043;-76
2022/11/22 05:03:11;;;;;;;2.28;1.30;;;;;;;2.94;100.00;90542.97;5072330;28;20025;-76
2022/11/22 05:05:38;;;;;;;1.40;1.08;;;;;;;2.93;100.00;90546.63;5073490;28;20098;-76
2022/11/22 05:08:05;;;;;;;1.27;0.88;;;;;;;2.96;100.00;90538.28;5074359;28;20486;-76
2022/11/22 05:13:20;;;;;;;0.63;0.63;;;;;;;3.13;100.00;90541.06;5073193;28;20466;-76
2022/11/22 05:15:46;;;;;;;0.70;0.70;;;;;;;3.16;100.00;90549.31;5072143;28;20048;-76
2022/11/22 05:18:12;;;;;;;0.68;0.68;;;;;;;3.11;100.00;90547.59;5073360;28;20458;-75
2022/11/22 05:20:37;;;;;;;0.80;0.80;;;;;;;3.06;100.00;90550.25;5072255;28;20115;-77
2022/11/22 05:25:47;;;;;;;1.30;1.10;;;;;;;3.03;100.00;90545.66;5072066;28;20032;-76
2022/11/22 05:28:13;;;;;;;1.15;1.00;;;;;;;2.98;100.00;90549.09;5073458;28;20605;-76
2022/11/22 05:30:39;;;;;;;1.95;1.10;;;;;;;2.98;100.00;90543.19;5073297;28;20032;-76
2022/11/22 05:33:05;;;;;;;1.88;1.20;;;;;;;2.97;100.00;90537.22;5055377;28;20087;-76
2022/11/22 05:35:30;;;;;;;1.88;1.38;;;;;;;2.96;100.00;90540.09;5071804;28;20029;-77
2022/11/22 05:37:57;;;;;;;2.35;1.40;;;;;;;2.95;100.00;90529.00;5077336;28;20046;-76
2022/11/22 05:40:23;;;;;;;2.95;1.60;;;;;;;2.95;100.00;90536.75;5087742;28;20071;-76
2022/11/22 05:42:48;;;;;;;2.25;1.38;;;;;;;2.95;100.00;90534.19;5079163;28;20028;-76
2022/11/22 05:45:14;;;;;;;2.55;1.35;;;;;;;2.95;100.00;90535.97;5088672;28;20124;-76
2022/11/22 05:47:40;;;;;;;2.40;1.50;;;;;;;2.94;100.00;90542.97;5091612;28;20383;-76
2022/11/22 05:50:06;;;;;;;3.10;1.60;;;;;;;2.93;100.00;90538.88;5071645;28;20058;-76
2022/11/22 05:52:31;;;;;;;2.55;1.50;;;;;;;2.97;100.00;90531.28;5092481;28;20048;-76
2022/11/22 05:54:57;;;;;;;2.40;1.50;;;;;;;2.95;100.00;90533.38;5074926;28;20224;-76
2022/11/22 05:57:22;;;;;;;2.22;1.33;;;;;;;2.92;100.00;90532.91;5074475;28;20118;-76
2022/11/22 05:59:48;;;;;;;2.88;1.50;;;;;;;2.89;100.00;90535.31;5090902;28;20075;-75
2022/11/22 06:02:13;;;;;;;1.88;1.40;;;;;;;2.88;100.00;90534.56;5088408;28;20504;-77
2022/11/22 06:04:39;;;;;;;2.22;1.40;;;;;;;2.95;100.00;90538.56;5071271;28;20032;-76
2022/11/22 06:07:04;;;;;;;2.28;1.30;;;;;;;2.94;100.00;90532.63;5078788;28;20036;-75
2022/11/22 06:09:30;;;;;;;1.95;1.30;;;;;;;2.94;100.00;90530.03;5088369;28;20043;-75
2022/11/22 06:11:55;;;;;;;1.77;1.20;;;;;;;2.93;100.00;90523.34;5082704;28;20036;-76
2022/11/22 06:14:21;;;;;;;2.25;1.30;;;;;;;2.92;100.00;90524.41;5070682;28;20044;-75
2022/11/22 06:16:47;;;;;;;2.05;1.38;;;;;;;2.92;100.00;90520.00;5053949;28;20051;-76
2022/11/22 06:19:12;;;;;;;1.90;1.17;;;;;;;2.89;100.00;90524.97;5074589;28;20036;-76
2022/11/22 06:21:38;;;;;;;2.13;1.30;;;;;;;2.89;100.00;90512.81;5071761;28;20081;-76
2022/11/22 06:24:04;;;;;;;1.92;1.20;;;;;;;2.90;100.00;90511.00;5070637;28;20040;-76
2022/11/22 06:26:29;;;;;;;3.10;1.33;;;;;;;2.94;100.00;90518.94;5070566;28;20037;-76
2022/11/22 06:28:55;;;;;;;3.42;1.30;;;;;;;2.93;100.00;90510.44;5071919;28;20029;-77
2022/11/22 06:31:23;;;;;;;1.92;1.10;;;;;;;2.97;100.00;90502.84;5055853;28;20047;-77
2022/11/22 06:33:49;;;;;;;2.17;1.20;;;;;;;2.98;100.00;90497.41;5085146;28;20032;-76
2022/11/22 06:36:18;;;;;;;1.27;0.95;;;;;;;3.00;100.00;90492.72;5070051;28;20052;-77
2022/11/22 06:38:45;;;;;;;1.83;1.20;;;;;;;2.98;100.00;90494.81;5071362;28;20128;-78
2022/11/22 06:41:13;;;;;;;1.73;1.20;;;;;;;2.98;100.00;90481.16;5071303;28;20036;-76
2022/11/22 06:43:40;;;;;;;1.60;1.10;;;;;;;2.96;100.00;90481.41;5070432;28;20587;-76
2022/11/22 06:46:06;;;;;;;1.60;0.95;;;;;;;2.96;100.00;90481.41;5074577;28;20079;-76
2022/11/22 06:48:35;;;;;;;0.82;0.82;;;;;;;2.95;100.00;90476.53;5106898;28;20050;-76
2022/11/22 06:51:03;;;;;;;2.40;1.50;;;;;;;2.94;100.00;90475.78;5091344;28;20043;-77
2022/11/22 06:53:30;;;;;;;3.70;1.73;;;;;;;2.94;100.00;90480.19;5091484;28;20036;-76
2022/11/22 06:56:17;;;;;;;2.70;1.40;;;;;;;2.95;100.00;90482.50;5089978;28;20047;-75
2022/11/22 06:58:44;;;;;;;3.35;1.65;;;;;;;2.99;100.00;90478.25;5070938;28;20574;-75
2022/11/22 07:01:12;;;;;;;2.15;1.25;;;;;;;3.00;100.00;90484.22;5080552;28;20093;-75
2022/11/22 07:03:39;;;;;;;2.72;1.13;;;;;;;3.06;100.00;90481.22;5073470;28;20028;-75
2022/11/22 07:06:06;;;;;;;4.75;1.67;;;;;;;3.11;100.00;90480.38;5089047;28;20044;-75
2022/11/22 07:08:32;;;;;;;2.95;1.55;;;;;;;3.18;100.00;90474.81;5076047;28;20040;-76
2022/11/22 07:11:05;;;;;;;3.28;1.70;;;;;;;3.24;100.00;90471.03;5079961;28;20430;-75
2022/11/22 07:13:31;;;;;;;2.55;1.40;;;;;;;3.28;100.00;90472.75;5089914;28;20130;-75
2022/11/22 07:15:58;;;;;;;2.58;1.30;;;;;;;3.37;100.00;90461.72;5089640;28;20032;-76
2022/11/22 07:18:24;;;;;;;3.13;1.20;;;;;;;3.47;100.00;90462.28;5080684;28;20033;-76
2022/11/22 07:20:50;;;;;;;1.70;1.20;;;;;;;3.46;100.00;90468.50;5070971;28;20032;-76
2022/11/22 07:23:16;;;;;;;1.38;1.00;;;;;;;3.44;100.00;90465.44;5053224;28;20040;-76
2022/11/22 07:25:47;;;;;;;1.67;1.05;;;;;;;3.40;100.00;90464.50;5071006;28;20043;-76
2022/11/22 07:28:14;;;;;;;1.75;1.25;;;;;;;3.36;100.00;90460.22;5070706;28;20174;-76
2022/11/22 07:30:41;;;;;;;1.77;1.10;;;;;;;3.34;100.00;90465.66;5074192;28;20386;-76
2022/11/22 07:33:07;;;;;;;1.85;1.00;;;;;;;3.32;100.00;90452.25;5070858;28;20512;-76
2022/11/22 07:35:33;;;;;;;1.25;0.85;;;;;;;3.34;100.00;90453.50;5070888;28;20047;-76
2022/11/22 07:37:58;;;;;;;3.00;1.40;;;;;;;3.35;100.00;90449.09;5070717;28;20032;-76
2022/11/22 07:40:24;;;;;;;2.60;1.50;;;;;;;3.45;100.00;90448.13;5072268;28;20032;-76
2022/11/22 07:42:49;;;;;;;2.80;1.60;;;;;;;3.48;100.00;90453.47;5069534;28;20090;-76
2022/11/22 07:45:15;;;;;;;2.97;1.60;;;;;;;3.53;100.00;90444.81;5069318;28;20250;-76
2022/11/22 07:47:41;;;;;;;4.72;1.70;;;;;;;3.55;100.00;90433.13;5069348;28;20036;-77
2022/11/22 07:50:07;;;;;;;3.55;1.70;;;;;;;3.60;100.00;90439.25;5071151;28;20283;-76
2022/11/22 07:52:33;;;;;;;2.17;1.10;;;;;;;3.64;100.00;90438.38;5091961;28;20159;-76
2022/11/22 07:54:58;;;;;;;1.42;0.90;;;;;;;3.71;100.00;90441.31;5095108;28;20588;-76
2022/11/22 07:57:24;;;;;;;1.17;0.90;;;;;;;3.74;100.00;90435.56;5094769;28;20370;-76
2022/11/22 07:59:49;;;;;;;2.17;1.05;;;;;;;3.80;100.00;90438.03;5093635;28;20050;-76
2022/11/22 08:02:15;;;;;;;0.77;0.77;;;;;;;3.84;100.00;90438.97;5077454;28;20033;-76
2022/11/22 08:04:41;;;;;;;0.95;0.80;;;;;;;3.94;100.00;90441.31;5073413;28;20036;-76
2022/11/22 08:07:08;;;;;;;0.57;0.57;;;;;;;4.09;100.00;90445.38;5073195;28;20089;-77
2022/11/22 08:09:34;;;;;;;0.80;0.52;;;;;;;4.19;100.00;90437.38;5073286;28;20032;-76
2022/11/22 08:12:00;;;;;;;0.50;0.50;;;;;;;4.29;100.00;90449.28;5074200;28;20078;-76
2022/11/22 08:14:26;;;;;;;1.27;0.75;;;;;;;4.32;100.00;90446.88;5074284;28;20291;-76
2022/11/22 08:16:51;;;;;;;0.55;0.52;;;;;;;4.34;100.00;90452.50;5074274;28;20029;-76
2022/11/22 08:19:17;;;;;;;0.70;0.70;;;;;;;4.48;100.00;90447.25;5073105;28;20020;-77
2022/11/22 08:21:43;;;;;;;1.15;0.70;;;;;;;4.53;100.00;90448.97;5057229;28;20486;-76
2022/11/22 08:24:09;;;;;;;0.52;0.52;;;;;;;4.57;100.00;90437.69;5072957;28;20044;-77
2022/11/22 08:26:35;;;;;;;0.65;0.65;;;;;;;4.68;100.00;90435.56;5056259;28;20036;-76
2022/11/22 08:29:04;;;;;;;0.60;0.60;;;;;;;4.68;100.00;90440.75;5074135;28;20036;-77
2022/11/22 08:31:30;;;;;;;0.52;0.52;;;;;;;4.74;100.00;90438.81;5073972;28;20039;-76
2022/11/22 08:33:55;;;;;;;0.60;0.60;;;;;;;4.75;100.00;90443.72;5089344;28;20036;-76
2022/11/22 08:36:21;;;;;;;0.60;0.60;;;;;;;4.85;100.00;90429.69;5094366;28;20032;-76
2022/11/22 08:38:47;;;;;;;0.63;0.63;;;;;;;4.84;100.00;90433.38;5076172;28;20417;-76
2022/11/22 08:41:13;;;;;;;0.60;0.60;;;;;;;5.02;100.00;90428.97;5094065;28;20039;-76
2022/11/22 08:43:38;;;;;;;0.50;0.50;;;;;;;4.96;100.00;90433.53;5074409;28;20023;-76
2022/11/22 08:46:05;;;;;;;0.70;0.70;;;;;;;4.96;100.00;90430.19;5094321;28;20053;-76
2022/11/22 08:48:33;;;;;;;0.45;0.45;;;;;;;5.05;100.00;90430.97;5092828;28;20336;-76
2022/11/22 08:51:01;;;;;;;0.55;0.50;;;;;;;5.17;97.89;90430.38;5094207;28;20024;-76
2022/11/22 08:53:28;;;;;;;0.40;0.40;;;;;;;5.23;95.61;90429.19;5073827;28;20048;-76
2022/11/22 08:55:54;;;;;;;0.60;0.60;;;;;;;5.31;95.34;90436.19;5090740;28;20094;-76
2022/11/22 08:58:21;;;;;;;0.50;0.50;;;;;;;5.50;91.96;90435.91;5092465;28;20438;-76
2022/11/22 09:00:46;;;;;;;0.50;0.50;;;;;;;5.69;84.54;90437.44;5093658;28;20131;-76
2022/11/22 09:03:12;;;;;;;1.13;0.60;;;;;;;5.62;88.41;90441.25;5091621;28;20180;-76
2022/11/22 09:05:37;;;;;;;0.55;0.55;;;;;;;5.81;86.27;90432.44;5092063;28;20020;-76
2022/11/22 09:08:03;;;;;;;1.30;0.77;;;;;;;5.76;85.08;90424.78;5075510;28;20040;-76
2022/11/22 09:10:28;;;;;;;1.38;0.85;;;;;;;5.88;84.98;90424.16;5074968;28;20401;-76
2022/11/22 09:12:54;;;;;;;0.52;0.50;;;;;;;5.91;84.19;90421.72;5091421;28;20047;-76
2022/11/22 09:15:20;;;;;;;0.77;0.60;;;;;;;5.84;84.02;90431.81;5075318;28;20089;-76
2022/11/22 09:17:45;;;;;;;0.95;0.68;;;;;;;5.95;80.24;90437.47;5073434;28;20517;-76
2022/11/22 09:20:11;;;;;;;2.13;1.20;;;;;;;5.95;80.59;90425.25;5093486;28;20040;-76
2022/11/22 09:22:38;;;;;;;1.60;0.75;;;;;;;5.95;79.90;90429.69;5092273;28;20044;-76
2022/11/22 09:25:05;;;;;;;0.68;0.68;;;;;;;6.02;75.74;90419.59;5093252;28;20024;-76
2022/11/22 09:27:31;;;;;;;1.25;0.88;;;;;;;6.01;78.04;90428.44;5082693;28;20070;-76
2022/11/22 09:29:57;;;;;;;0.73;0.70;;;;;;;6.10;73.21;90412.84;5055164;28;20044;-76
2022/11/22 09:32:23;;;;;;;0.70;0.70;;;;;;;6.14;71.12;90421.56;5071518;28;20028;-76
2022/11/22 09:34:49;;;;;;;1.25;1.00;;;;;;;6.08;74.77;90420.19;5072379;28;20440;-76
2022/11/22 09:37:17;;;;;;;0.80;0.80;;;;;;;6.12;71.47;90415.91;5085912;28;20032;-76
2022/11/22 09:39:46;;;;;;;0.50;0.50;;;;;;;6.18;69.32;90404.28;5092837;28;20058;-76
2022/11/22 09:42:47;;;;;;;0.75;0.60;;;;;;;6.26;71.59;90406.09;5093167;28;20035;-76
2022/11/22 09:45:30;;;;;;;0.65;0.65;;;;;;;6.25;72.97;90402.72;5062343;28;20051;-76
2022/11/22 09:48:40;;;;;;;2.25;0.80;;;;;;;6.20;70.22;90404.72;5071307;28;20040;-77
2022/11/22 09:51:16;;;;;;;0.68;0.68;;;;;;;6.27;69.73;90410.22;5057036;28;20380;-76
2022/11/22 09:53:41;;;;;;;0.63;0.63;;;;;;;6.20;70.76;90407.34;5071986;28;20045;-77
2022/11/22 09:56:11;;;;;;;0.70;0.70;;;;;;;6.30;67.67;90404.38;5087077;28;20056;-76
2022/11/22 09:58:45;;;;;;;0.90;0.70;;;;;;;6.39;70.09;90407.72;5072262;28;20043;-77
2022/11/22 10:01:56;;;;;;;0.65;0.55;;;;;;;6.37;67.34;90390.91;5072515;28;20428;-76
2022/11/22 10:04:24;;;;;;;0.60;0.60;;;;;;;6.47;61.93;90375.00;5072088;28;20055;-77
2022/11/22 10:07:06;;;;;;;0.63;0.60;;;;;;;6.60;63.91;90379.22;5073331;28;20036;-76
2022/11/22 10:09:49;;;;;;;0.50;0.50;;;;;;;6.54;62.91;90379.72;5084630;28;20032;-77
2022/11/22 10:12:24;;;;;;;0.77;0.70;;;;;;;6.53;63.67;90378.16;5090985;28;20028;-77
2022/11/22 10:15:01;;;;;;;0.50;0.50;;;;;;;6.63;60.89;90388.25;5091043;28;20047;-77
2022/11/22 10:17:38;;;;;;;0.77;0.68;;;;;;;6.63;62.03;90380.44;5092226;28;20048;-77
2022/11/22 10:20:15;;;;;;;0.65;0.65;;;;;;;6.79;58.95;90381.41;5084448;28;20547;-77
2022/11/22 10:22:40;;;;;;;0.50;0.50;;;;;;;6.76;58.85;90374.25;5072056;28;20074;-77
2022/11/22 10:25:18;;;;;;;0.60;0.60;;;;;;;6.73;61.53;90369.66;5054131;28;20056;-77
2022/11/22 10:27:51;;;;;;;0.63;0.50;;;;;;;6.79;58.29;90370.25;5076497;28;20032;-77
2022/11/22 10:30:19;;;;;;;1.02;0.70;;;;;;;6.80;58.92;90361.38;5085906;28;20035;-77
2022/11/22 10:32:52;;;;;;;1.35;0.80;;;;;;;6.90;61.98;90371.44;5075568;28;20127;-76
2022/11/22 10:35:26;;;;;;;0.40;0.40;;;;;;;7.04;52.41;90366.00;5071666;28;20037;-77
2022/11/22 10:38:06;;;;;;;0.40;0.40;;;;;;;7.10;54.91;90359.53;5069817;28;20040;-76
2022/11/22 10:40:41;;;;;;;1.58;0.75;;;;;;;7.11;54.67;90353.25;5070879;28;20040;-76
2022/11/22 10:43:32;;;;;;;1.23;0.80;;;;;;;7.19;54.89;90352.44;5070340;28;20040;-76
2022/11/22 10:46:12;;;;;;;1.00;0.82;;;;;;;7.45;54.76;90343.66;5072532;28;20060;-76
2022/11/22 10:48:48;;;;;;;1.08;0.75;;;;;;;7.44;54.38;90342.16;5053329;28;20044;-76
2022/11/22 10:51:23;;;;;;;0.70;0.70;;;;;;;7.43;52.32;90346.59;5071911;28;20405;-76
2022/11/22 10:53:53;;;;;;;0.65;0.65;;;;;;;7.58;51.53;90336.69;5107606;28;20441;-76
2022/11/22 10:56:22;;;;;;;0.60;0.60;;;;;;;7.82;46.26;90339.38;5090369;28;20043;-76
2022/11/22 10:59:08;;;;;;;0.77;0.77;;;;;;;7.86;50.82;90339.50;5090298;28;20031;-76
2022/11/22 11:01:50;;;;;;;0.68;0.60;;;;;;;7.78;47.39;90343.69;5090987;28;20485;-76
2022/11/22 11:04:17;;;;;;;2.47;0.55;;;;;;;7.89;47.43;90337.00;5071099;28;20024;-77
2022/11/22 11:06:48;;;;;;;1.10;0.75;;;;;;;7.85;48.92;90330.91;5069753;28;20124;-76
2022/11/22 11:09:32;;;;;;;0.55;0.55;;;;;;;7.91;49.06;90339.28;5069659;28;20032;-76
2022/11/22 11:12:00;;;;;;;0.80;0.60;;;;;;;8.12;46.95;90328.81;5070835;28;20113;-76
2022/11/22 11:14:58;;;;;;;1.20;0.80;;;;;;;7.99;49.14;90330.63;5090241;28;20154;-77
2022/11/22 11:17:35;;;;;;;1.25;0.80;;;;;;;7.96;48.01;90338.31;5090685;28;20048;-77
2022/11/22 11:20:21;;;;;;;1.23;0.70;;;;;;;7.90;47.54;90332.53;5089515;28;20460;-77
2022/11/22 11:22:47;;;;;;;0.70;0.70;;;;;;;7.88;49.29;90334.72;5091179;28;20039;-76
2022/11/22 11:25:42;;;;;;;0.60;0.60;;;;;;;7.98;45.80;90328.34;5087942;28;20032;-76
2022/11/22 11:28:18;;;;;;;0.75;0.70;;;;;;;7.95;48.17;90327.16;5089823;28;20036;-76
2022/11/22 11:31:07;;;;;;;0.77;0.70;;;;;;;7.85;50.61;90324.94;5078870;28;20061;-76
2022/11/22 11:33:36;;;;;;;1.95;1.15;;;;;;;7.84;48.03;90318.22;5084548;28;20490;-77
2022/11/22 11:36:06;;;;;;;1.33;0.70;;;;;;;7.95;43.80;90311.53;5089881;28;20119;-76
2022/11/22 11:38:35;;;;;;;1.02;0.93;;;;;;;8.11;45.53;90322.84;5089721;28;20089;-77
2022/11/22 11:41:29;;;;;;;0.80;0.80;;;;;;;8.07;46.74;90321.97;5081358;28;20024;-76
2022/11/22 11:43:59;;;;;;;1.05;0.63;;;;;;;8.20;43.22;90314.19;5070708;28;20033;-76
2022/11/22 11:46:27;;;;;;;1.33;0.70;;;;;;;8.12;41.96;90313.91;5070781;28;20033;-77
2022/11/22 11:48:55;;;;;;;0.70;0.60;;;;;;;8.19;45.71;90312.63;5070622;28;20016;-77
2022/11/22 11:51:23;;;;;;;0.80;0.60;;;;;;;8.13;44.43;90314.72;5071687;28;20379;-77
2022/11/22 11:53:57;;;;;;;0.60;0.60;;;;;;;8.28;42.40;90311.44;5066913;28;20512;-76
2022/11/22 11:56:33;;;;;;;1.38;0.75;;;;;;;8.38;43.55;90312.88;5072754;28;20066;-77